Sandra Hugh — WDD9019 — position and weather

sailwx.info

Track history (hours):
 
Tides and Currents Weather Stations Pressure Air Temp Water Temp Dewpoint Dewpoint Depression Visibility Wind Speed Wind Dir Waves Ship Positions

Sandra Hugh

Owner: Sortwell Inc., DBA AmNav Maritime Services, Oakland, CA. More information available from US FCC via Universal Licensing System and Coast Guard Vessel Documentation Center.

Last reported at 2016-Jun-30 14:25 UTC. Time now 2016-Jun-30 23:16 UTC.
Position N 38°02' W 122°09'.

Length 24 m; draft 4.9 m.

Type: Tug. MMSI: 367305920.

Date/timePositionNaut miles runAvg speedWind from/ knotsBaromVisibWave heightAir tempDewpointWater temp
2016-Jun-30 14:25N 38°02' W 122°09'12 0.9
2016-Jun-30 00:25N 38°02' W 121°53'16 1.3
2016-Jun-29 12:25N 38°04' W 122°13'910.6
2016-Jun-29 11:33N 38°00' W 122°24'1010.5
2016-Jun-29 10:33N 37°50' W 122°22'3 2.9
2016-Jun-29 09:33N 37°49' W 122°19'0 0.0
2016-Jun-29 08:34N 37°49' W 122°19'0 0.0
2016-Jun-29 07:33N 37°49' W 122°19'0 0.0
2016-Jun-29 06:33N 37°49' W 122°19'0 0.0
2016-Jun-29 05:33N 37°49' W 122°19'0 0.0
2016-Jun-29 04:33N 37°49' W 122°19'2 1.8
2016-Jun-29 03:33N 37°48' W 122°20'1 1.1
2016-Jun-29 02:33N 37°48' W 122°19'0 0.1
2016-Jun-29 01:34N 37°48' W 122°19'2 1.6
2016-Jun-29 00:33N 37°49' W 122°19'0 0.0
2016-Jun-28 23:33N 37°49' W 122°19'0 0.0
2016-Jun-28 22:33N 37°49' W 122°19'0 0.0
2016-Jun-28 21:32N 37°49' W 122°19'0 0.0
2016-Jun-28 20:32N 37°49' W 122°19'2 2.0
2016-Jun-28 19:33N 37°47' W 122°18'2 2.0
2016-Jun-28 18:32N 37°49' W 122°20'1 1.4
2016-Jun-28 17:33N 37°49' W 122°19'0 0.0
2016-Jun-28 16:33N 37°49' W 122°19'0 0.0
2016-Jun-28 15:33N 37°49' W 122°19'1 1.0
2016-Jun-28 14:33N 37°49' W 122°20'1 1.2
2016-Jun-28 13:34N 37°48' W 122°19'1 0.7
2016-Jun-28 12:33N 37°48' W 122°20'0 0.4
2016-Jun-28 11:33N 37°48' W 122°19'0 0.1
2016-Jun-28 10:33N 37°48' W 122°19'1 1.1
2016-Jun-28 09:33N 37°48' W 122°18'0 0.1
2016-Jun-28 08:33N 37°48' W 122°18'1 1.0
2016-Jun-28 07:33N 37°48' W 122°19'2 0.2
2016-Jun-27 18:31N 37°49' W 122°21'5 1.2
2016-Jun-27 14:24N 37°54' W 122°25'8 9.7
2016-Jun-27 13:34N 37°48' W 122°18'1 1.4
2016-Jun-27 12:33N 37°48' W 122°20'2 1.8
2016-Jun-27 11:33N 37°48' W 122°22'2 1.9
2016-Jun-27 10:32N 37°49' W 122°20'1 1.0
2016-Jun-27 09:33N 37°49' W 122°19'0 0.0
2016-Jun-27 08:34N 37°49' W 122°19'0 0.0
2016-Jun-27 07:34N 37°49' W 122°19'0 0.0
2016-Jun-27 06:33N 37°49' W 122°19'0 0.0
2016-Jun-27 05:33N 37°49' W 122°19'0 0.0
2016-Jun-27 04:33N 37°49' W 122°19'0 0.0
2016-Jun-27 03:28N 37°49' W 122°19'2 1.9
2016-Jun-27 02:33N 37°48' W 122°20'1 0.6
2016-Jun-27 01:34N 37°48' W 122°19'1 0.8
2016-Jun-27 00:34N 37°48' W 122°18'2 0.4
2016-Jun-26 20:33N 37°49' W 122°19'0 0.0
2016-Jun-26 19:33N 37°49' W 122°19'0 0.0
2016-Jun-26 15:08N 37°49' W 122°19'1 1.1
2016-Jun-26 14:30N 37°49' W 122°19'0 0.4
2016-Jun-26 13:31N 37°49' W 122°20'1 0.8
2016-Jun-26 12:34N 37°48' W 122°20'0 0.3
2016-Jun-26 11:33N 37°48' W 122°20'2 0.5
2016-Jun-26 08:30N 37°49' W 122°19'0 0.0
2016-Jun-26 06:30N 37°49' W 122°19'0 0.0
2016-Jun-26 03:33N 37°49' W 122°19'2 1.6
2016-Jun-26 02:33N 37°49' W 122°20'1 0.8
2016-Jun-26 01:33N 37°48' W 122°20'1 1.3
2016-Jun-26 00:34N 37°48' W 122°18'0 0.4
2016-Jun-25 23:33N 37°48' W 122°19'2 1.6
2016-Jun-25 22:30N 37°48' W 122°21'2 1.9
2016-Jun-25 21:33N 37°49' W 122°19'0 0.0
2016-Jun-25 20:33N 37°49' W 122°19'0 0.0
2016-Jun-25 15:31N 37°49' W 122°19'0 0.0
2016-Jun-25 14:07N 37°49' W 122°19'0 0.0
2016-Jun-25 11:29N 37°49' W 122°19'2 0.2
2016-Jun-25 03:31N 37°48' W 122°21'1 1.5
2016-Jun-25 02:34N 37°48' W 122°19'2 0.1
2016-Jun-24 14:16N 37°49' W 122°19'2 2.1
2016-Jun-24 13:33N 37°48' W 122°19'3 3.2
2016-Jun-24 12:33N 37°48' W 122°23'3 3.4
2016-Jun-24 11:33N 37°49' W 122°19'0 0.0
2016-Jun-24 10:33N 37°49' W 122°19'0 0.0
2016-Jun-24 09:33N 37°49' W 122°19'0 0.0
2016-Jun-24 08:33N 37°49' W 122°19'0 0.0
2016-Jun-24 07:33N 37°49' W 122°19'1 0.1
2016-Jun-24 03:05N 37°49' W 122°19'0 0.8
2016-Jun-24 02:30N 37°49' W 122°20'0 0.3
2016-Jun-24 01:33N 37°49' W 122°20'2 2.4
2016-Jun-24 00:34N 37°48' W 122°17'2 0.4
2016-Jun-23 19:12N 37°49' W 122°19'1 1.9
2016-Jun-23 18:33N 37°49' W 122°20'0 0.0
2016-Jun-23 16:26N 37°49' W 122°20'0 0.0
2016-Jun-23 15:31N 37°49' W 122°20'0 0.0
2016-Jun-23 14:33N 37°49' W 122°20'0 0.2
2016-Jun-23 13:32N 37°49' W 122°20'2 1.9
2016-Jun-23 12:33N 37°48' W 122°22'3 3.0
2016-Jun-23 11:33N 37°48' W 122°18'0 0.1
2016-Jun-23 10:33N 37°48' W 122°18'0 0.2
2016-Jun-23 09:33N 37°48' W 122°19'2 1.6
2016-Jun-23 08:33N 37°49' W 122°20'0 0.0
2016-Jun-23 07:33N 37°49' W 122°20'0 0.0
2016-Jun-23 05:33N 37°49' W 122°20'0 0.0
2016-Jun-23 04:33N 37°49' W 122°20'2 1.7
2016-Jun-23 03:33N 37°48' W 122°18'1 0.7
2016-Jun-23 02:33N 37°48' W 122°19'1 1.3
2016-Jun-23 01:33N 37°48' W 122°21'3 3.2
2016-Jun-23 00:34N 37°48' W 122°17'0 0.0
2016-Jun-22 23:34N 37°48' W 122°17'2 1.8
2016-Jun-22 22:33N 37°48' W 122°19'1 1.1
2016-Jun-22 21:29N 37°48' W 122°21'2 2.0
2016-Jun-22 20:34N 37°49' W 122°19'0 0.0
2016-Jun-22 19:32N 37°49' W 122°19'0 0.0
2016-Jun-22 18:33N 37°49' W 122°19'0 0.0
2016-Jun-22 17:33N 37°49' W 122°19'0 0.0
2016-Jun-22 16:29N 37°49' W 122°19'0 0.0
2016-Jun-22 15:24N 37°49' W 122°19'0 0.0
2016-Jun-22 14:33N 37°49' W 122°19'0 0.0
2016-Jun-22 13:33N 37°49' W 122°19'0 0.0
2016-Jun-22 12:33N 37°49' W 122°19'0 0.0
2016-Jun-22 11:33N 37°49' W 122°19'0 0.0
2016-Jun-22 10:33N 37°49' W 122°19'0 0.0
2016-Jun-22 09:33N 37°49' W 122°19'0 0.0
2016-Jun-22 08:33N 37°49' W 122°19'0 0.0
2016-Jun-22 07:33N 37°49' W 122°19'0 0.0
2016-Jun-22 06:34N 37°49' W 122°19'0 0.0
2016-Jun-22 05:33N 37°49' W 122°19'0 0.0
2016-Jun-22 04:33N 37°49' W 122°19'1 1.0
2016-Jun-22 03:26N 37°49' W 122°20'2 1.9
2016-Jun-22 02:33N 37°48' W 122°18'0 0.2
2016-Jun-22 01:33N 37°48' W 122°19'3 3.1
2016-Jun-22 00:33N 37°48' W 122°23'3 3.5
2016-Jun-21 23:33N 37°48' W 122°18'2 1.8
2016-Jun-21 22:33N 37°48' W 122°20'8 1.3
2016-Jun-21 16:10N 37°55' W 122°25'3 4.4
2016-Jun-21 15:32N 37°55' W 122°22'1 0.9
2016-Jun-21 14:22N 37°54' W 122°23'0 0.0
2016-Jun-21 13:24N 37°54' W 122°23'0 0.0
2016-Jun-21 10:30N 37°54' W 122°23'7 1.9
2016-Jun-21 06:33N 38°02' W 122°22'11 5.5
2016-Jun-21 04:33N 38°03' W 122°08'2 2.2
2016-Jun-21 03:33N 38°03' W 122°11'8 8.4
2016-Jun-21 02:33N 38°02' W 122°21'7 7.2
2016-Jun-21 01:33N 37°55' W 122°25'2 0.6
2016-Jun-20 22:30N 37°55' W 122°23'2 0.8
2016-Jun-20 20:28N 37°55' W 122°25'2 0.4
2016-Jun-20 16:11N 37°54' W 122°24'2 2.0
2016-Jun-20 15:24N 37°53' W 122°25'5 6.0
2016-Jun-20 14:34N 37°48' W 122°24'  
Track history (hours):
 
Tides and Currents Weather Stations Pressure Air Temp Water Temp Dewpoint Dewpoint Depression Visibility Wind Speed Wind Dir Waves Ship Positions

Sandra Hugh

Owner: Sortwell Inc., DBA AmNav Maritime Services, Oakland, CA. More information available from US FCC via Universal Licensing System and Coast Guard Vessel Documentation Center.

Last reported at 2016-Jun-30 14:25 UTC. Time now 2016-Jun-30 23:16 UTC.
Position N 38°02' W 122°09'.

Length 24 m; draft 4.9 m.

Type: Tug. MMSI: 367305920.

Date/timePositionNaut miles runAvg speedWind from/ knotsBaromVisibWave heightAir tempDewpointWater temp
2016-Jun-30 14:25N 38°02' W 122°09'12 0.9
2016-Jun-30 00:25N 38°02' W 121°53'16 1.3
2016-Jun-29 12:25N 38°04' W 122°13'910.6
2016-Jun-29 11:33N 38°00' W 122°24'1010.5
2016-Jun-29 10:33N 37°50' W 122°22'3 2.9
2016-Jun-29 09:33N 37°49' W 122°19'0 0.0
2016-Jun-29 08:34N 37°49' W 122°19'0 0.0
2016-Jun-29 07:33N 37°49' W 122°19'0 0.0
2016-Jun-29 06:33N 37°49' W 122°19'0 0.0
2016-Jun-29 05:33N 37°49' W 122°19'0 0.0
2016-Jun-29 04:33N 37°49' W 122°19'2 1.8
2016-Jun-29 03:33N 37°48' W 122°20'1 1.1
2016-Jun-29 02:33N 37°48' W 122°19'0 0.1
2016-Jun-29 01:34N 37°48' W 122°19'2 1.6
2016-Jun-29 00:33N 37°49' W 122°19'0 0.0
2016-Jun-28 23:33N 37°49' W 122°19'0 0.0
2016-Jun-28 22:33N 37°49' W 122°19'0 0.0
2016-Jun-28 21:32N 37°49' W 122°19'0 0.0
2016-Jun-28 20:32N 37°49' W 122°19'2 2.0
2016-Jun-28 19:33N 37°47' W 122°18'2 2.0
2016-Jun-28 18:32N 37°49' W 122°20'1 1.4
2016-Jun-28 17:33N 37°49' W 122°19'0 0.0
2016-Jun-28 16:33N 37°49' W 122°19'0 0.0
2016-Jun-28 15:33N 37°49' W 122°19'1 1.0
2016-Jun-28 14:33N 37°49' W 122°20'1 1.2
2016-Jun-28 13:34N 37°48' W 122°19'1 0.7
2016-Jun-28 12:33N 37°48' W 122°20'0 0.4
2016-Jun-28 11:33N 37°48' W 122°19'0 0.1
2016-Jun-28 10:33N 37°48' W 122°19'1 1.1
2016-Jun-28 09:33N 37°48' W 122°18'0 0.1
2016-Jun-28 08:33N 37°48' W 122°18'1 1.0
2016-Jun-28 07:33N 37°48' W 122°19'2 0.2
2016-Jun-27 18:31N 37°49' W 122°21'5 1.2
2016-Jun-27 14:24N 37°54' W 122°25'8 9.7
2016-Jun-27 13:34N 37°48' W 122°18'1 1.4
2016-Jun-27 12:33N 37°48' W 122°20'2 1.8
2016-Jun-27 11:33N 37°48' W 122°22'2 1.9
2016-Jun-27 10:32N 37°49' W 122°20'1 1.0
2016-Jun-27 09:33N 37°49' W 122°19'0 0.0
2016-Jun-27 08:34N 37°49' W 122°19'0 0.0
2016-Jun-27 07:34N 37°49' W 122°19'0 0.0
2016-Jun-27 06:33N 37°49' W 122°19'0 0.0
2016-Jun-27 05:33N 37°49' W 122°19'0 0.0
2016-Jun-27 04:33N 37°49' W 122°19'0 0.0
2016-Jun-27 03:28N 37°49' W 122°19'2 1.9
2016-Jun-27 02:33N 37°48' W 122°20'1 0.6
2016-Jun-27 01:34N 37°48' W 122°19'1 0.8
2016-Jun-27 00:34N 37°48' W 122°18'2 0.4
2016-Jun-26 20:33N 37°49' W 122°19'0 0.0
2016-Jun-26 19:33N 37°49' W 122°19'0 0.0
2016-Jun-26 15:08N 37°49' W 122°19'1 1.1
2016-Jun-26 14:30N 37°49' W 122°19'0 0.4
2016-Jun-26 13:31N 37°49' W 122°20'1 0.8
2016-Jun-26 12:34N 37°48' W 122°20'0 0.3
2016-Jun-26 11:33N 37°48' W 122°20'2 0.5
2016-Jun-26 08:30N 37°49' W 122°19'0 0.0
2016-Jun-26 06:30N 37°49' W 122°19'0 0.0
2016-Jun-26 03:33N 37°49' W 122°19'2 1.6
2016-Jun-26 02:33N 37°49' W 122°20'1 0.8
2016-Jun-26 01:33N 37°48' W 122°20'1 1.3
2016-Jun-26 00:34N 37°48' W 122°18'0 0.4
2016-Jun-25 23:33N 37°48' W 122°19'2 1.6
2016-Jun-25 22:30N 37°48' W 122°21'2 1.9
2016-Jun-25 21:33N 37°49' W 122°19'0 0.0
2016-Jun-25 20:33N 37°49' W 122°19'0 0.0
2016-Jun-25 15:31N 37°49' W 122°19'0 0.0
2016-Jun-25 14:07N 37°49' W 122°19'0 0.0
2016-Jun-25 11:29N 37°49' W 122°19'2 0.2
2016-Jun-25 03:31N 37°48' W 122°21'1 1.5
2016-Jun-25 02:34N 37°48' W 122°19'2 0.1
2016-Jun-24 14:16N 37°49' W 122°19'2 2.1
2016-Jun-24 13:33N 37°48' W 122°19'3 3.2
2016-Jun-24 12:33N 37°48' W 122°23'3 3.4
2016-Jun-24 11:33N 37°49' W 122°19'0 0.0
2016-Jun-24 10:33N 37°49' W 122°19'0 0.0
2016-Jun-24 09:33N 37°49' W 122°19'0 0.0
2016-Jun-24 08:33N 37°49' W 122°19'0 0.0
2016-Jun-24 07:33N 37°49' W 122°19'1 0.1
2016-Jun-24 03:05N 37°49' W 122°19'0 0.8
2016-Jun-24 02:30N 37°49' W 122°20'0 0.3
2016-Jun-24 01:33N 37°49' W 122°20'2 2.4
2016-Jun-24 00:34N 37°48' W 122°17'2 0.4
2016-Jun-23 19:12N 37°49' W 122°19'1 1.9
2016-Jun-23 18:33N 37°49' W 122°20'0 0.0
2016-Jun-23 16:26N 37°49' W 122°20'0 0.0
2016-Jun-23 15:31N 37°49' W 122°20'0 0.0
2016-Jun-23 14:33N 37°49' W 122°20'0 0.2
2016-Jun-23 13:32N 37°49' W 122°20'2 1.9
2016-Jun-23 12:33N 37°48' W 122°22'3 3.0
2016-Jun-23 11:33N 37°48' W 122°18'0 0.1
2016-Jun-23 10:33N 37°48' W 122°18'0 0.2
2016-Jun-23 09:33N 37°48' W 122°19'2 1.6
2016-Jun-23 08:33N 37°49' W 122°20'0 0.0
2016-Jun-23 07:33N 37°49' W 122°20'0 0.0
2016-Jun-23 05:33N 37°49' W 122°20'0 0.0
2016-Jun-23 04:33N 37°49' W 122°20'2 1.7
2016-Jun-23 03:33N 37°48' W 122°18'1 0.7
2016-Jun-23 02:33N 37°48' W 122°19'1 1.3
2016-Jun-23 01:33N 37°48' W 122°21'3 3.2
2016-Jun-23 00:34N 37°48' W 122°17'0 0.0
2016-Jun-22 23:34N 37°48' W 122°17'2 1.8
2016-Jun-22 22:33N 37°48' W 122°19'1 1.1
2016-Jun-22 21:29N 37°48' W 122°21'2 2.0
2016-Jun-22 20:34N 37°49' W 122°19'0 0.0
2016-Jun-22 19:32N 37°49' W 122°19'0 0.0
2016-Jun-22 18:33N 37°49' W 122°19'0 0.0
2016-Jun-22 17:33N 37°49' W 122°19'0 0.0
2016-Jun-22 16:29N 37°49' W 122°19'0 0.0
2016-Jun-22 15:24N 37°49' W 122°19'0 0.0
2016-Jun-22 14:33N 37°49' W 122°19'0 0.0
2016-Jun-22 13:33N 37°49' W 122°19'0 0.0
2016-Jun-22 12:33N 37°49' W 122°19'0 0.0
2016-Jun-22 11:33N 37°49' W 122°19'0 0.0
2016-Jun-22 10:33N 37°49' W 122°19'0 0.0
2016-Jun-22 09:33N 37°49' W 122°19'0 0.0
2016-Jun-22 08:33N 37°49' W 122°19'0 0.0
2016-Jun-22 07:33N 37°49' W 122°19'0 0.0
2016-Jun-22 06:34N 37°49' W 122°19'0 0.0
2016-Jun-22 05:33N 37°49' W 122°19'0 0.0
2016-Jun-22 04:33N 37°49' W 122°19'1 1.0
2016-Jun-22 03:26N 37°49' W 122°20'2 1.9
2016-Jun-22 02:33N 37°48' W 122°18'0 0.2
2016-Jun-22 01:33N 37°48' W 122°19'3 3.1
2016-Jun-22 00:33N 37°48' W 122°23'3 3.5
2016-Jun-21 23:33N 37°48' W 122°18'2 1.8
2016-Jun-21 22:33N 37°48' W 122°20'8 1.3
2016-Jun-21 16:10N 37°55' W 122°25'3 4.4
2016-Jun-21 15:32N 37°55' W 122°22'1 0.9
2016-Jun-21 14:22N 37°54' W 122°23'0 0.0
2016-Jun-21 13:24N 37°54' W 122°23'0 0.0
2016-Jun-21 10:30N 37°54' W 122°23'7 1.9
2016-Jun-21 06:33N 38°02' W 122°22'11 5.5
2016-Jun-21 04:33N 38°03' W 122°08'2 2.2
2016-Jun-21 03:33N 38°03' W 122°11'8 8.4
2016-Jun-21 02:33N 38°02' W 122°21'7 7.2
2016-Jun-21 01:33N 37°55' W 122°25'2 0.6
2016-Jun-20 22:30N 37°55' W 122°23'2 0.8
2016-Jun-20 20:28N 37°55' W 122°25'2 0.4
2016-Jun-20 16:11N 37°54' W 122°24'2 2.0
2016-Jun-20 15:24N 37°53' W 122°25'5 6.0
2016-Jun-20 14:34N 37°48' W 122°24'  

Dump ship's entire track history